Time;durP1;ratioP1;P1;durP2;ratioP2;P2;SDS_P1;SDS_P2;PMS_P1;PMS_P2;Temp;Humidity;BMP_temperature;BMP_pressure;BME280_temperature;BME280_humidity;BME280_pressure;Samples;Min_cycle;Max_cycle;Signal;HPM_P1;HPM_P2
2022/01/17 00:00:07;;;;;;;40.13;24.03;;;;;;;;;;784374;177;919030;-64
2022/01/17 00:02:33;;;;;;;44.53;25.73;;;;;;;;;;778827;177;919381;-63
2022/01/17 00:04:59;;;;;;;40.23;24.13;;;;;;;;;;779257;177;919400;-63
2022/01/17 00:07:29;;;;;;;42.13;23.70;;;;;;;;;;786808;176;918788;-64
2022/01/17 00:09:51;;;;;;;38.90;24.27;;;;;;;;;;776990;176;929686;-65
2022/01/17 00:12:17;;;;;;;42.50;23.30;;;;;;;;;;769225;180;920182;-64
2022/01/17 00:14:43;;;;;;;44.57;25.60;;;;;;;;;;770463;180;918825;-64
2022/01/17 00:17:24;;;;;;;40.13;23.30;;;;;;;;;;752717;184;919473;-63
2022/01/17 00:19:41;;;;;;;39.53;23.10;;;;;;;;;;780225;177;919610;-64
2022/01/17 00:22:03;;;;;;;46.83;24.70;;;;;;;;;;780470;177;923520;-62
2022/01/17 00:24:29;;;;;;;43.80;22.77;;;;;;;;;;778276;179;919431;-64
2022/01/17 00:26:55;;;;;;;40.70;23.27;;;;;;;;;;788154;177;919543;-64
2022/01/17 00:29:21;;;;;;;42.10;22.67;;;;;;;;;;785396;176;918596;-64
2022/01/17 00:31:46;;;;;;;40.07;21.63;;;;;;;;;;761631;181;918699;-64
2022/01/17 00:34:12;;;;;;;42.40;22.90;;;;;;;;;;777648;177;920110;-64
2022/01/17 00:36:38;;;;;;;40.60;21.80;;;;;;;;;;789760;176;920097;-63
2022/01/17 00:39:04;;;;;;;38.60;19.30;;;;;;;;;;766727;180;918970;-64
2022/01/17 00:41:30;;;;;;;41.80;22.57;;;;;;;;;;783134;177;629055;-65
2022/01/17 00:43:56;;;;;;;43.03;23.13;;;;;;;;;;793606;176;625685;-65
2022/01/17 00:46:22;;;;;;;42.90;24.47;;;;;;;;;;792113;176;632861;-65
2022/01/17 00:48:47;;;;;;;43.25;22.42;;;;;;;;;;784031;176;631944;-63
2022/01/17 00:51:13;;;;;;;40.37;26.00;;;;;;;;;;784163;176;627419;-64
2022/01/17 00:53:40;;;;;;;44.63;24.10;;;;;;;;;;787599;176;638679;-64
2022/01/17 00:56:05;;;;;;;40.73;23.23;;;;;;;;;;785387;178;919186;-64
2022/01/17 00:58:31;;;;;;;44.10;23.33;;;;;;;;;;779564;177;918728;-64
2022/01/17 01:00:57;;;;;;;45.30;22.37;;;;;;;;;;782060;177;919083;-64
2022/01/17 01:03:22;;;;;;;43.97;24.20;;;;;;;;;;786014;177;917648;-63
2022/01/17 01:05:48;;;;;;;40.43;24.00;;;;;;;;;;788486;176;918137;-64
2022/01/17 01:08:14;;;;;;;51.70;23.00;;;;;;;;;;790546;174;918987;-63
2022/01/17 01:10:40;;;;;;;49.43;24.93;;;;;;;;;;773567;180;918863;-64
2022/01/17 01:13:06;;;;;;;44.83;23.07;;;;;;;;;;783268;178;920334;-64
2022/01/17 01:15:44;;;;;;;39.57;21.90;;;;;;;;;;781385;177;918389;-64
2022/01/17 01:18:01;;;;;;;40.80;21.80;;;;;;;;;;780091;176;919263;-63
2022/01/17 01:20:51;;;;;;;49.37;24.00;;;;;;;;;;782755;177;1017865;-63
2022/01/17 01:27:56;;;;;;;54.57;26.77;;;;;;;;;;764898;183;919735;-63
2022/01/17 01:30:22;;;;;;;41.00;24.10;;;;;;;;;;785488;177;917955;-64
2022/01/17 01:32:50;;;;;;;40.00;25.73;;;;;;;;;;783345;176;918653;-65
2022/01/17 01:35:14;;;;;;;55.28;26.62;;;;;;;;;;783427;176;919532;-64
2022/01/17 01:37:37;;;;;;;50.80;25.23;;;;;;;;;;784110;177;919176;-64
2022/01/17 01:40:04;;;;;;;43.20;25.10;;;;;;;;;;780046;177;919435;-65
2022/01/17 01:42:32;;;;;;;46.40;25.30;;;;;;;;;;774777;180;1020916;-65
2022/01/17 01:44:55;;;;;;;44.30;25.00;;;;;;;;;;775393;180;918744;-64
2022/01/17 01:47:21;;;;;;;47.93;24.07;;;;;;;;;;780792;177;919593;-64
2022/01/17 01:49:47;;;;;;;46.87;24.23;;;;;;;;;;778708;177;919295;-64
2022/01/17 01:52:13;;;;;;;45.90;24.90;;;;;;;;;;777413;177;919535;-65
2022/01/17 01:54:39;;;;;;;45.97;25.03;;;;;;;;;;772760;179;920067;-64
2022/01/17 01:57:05;;;;;;;49.73;25.83;;;;;;;;;;767131;181;919310;-66
2022/01/17 01:59:31;;;;;;;46.28;25.75;;;;;;;;;;788690;176;1037441;-64
2022/01/17 02:01:57;;;;;;;41.33;24.67;;;;;;;;;;786546;177;918739;-64
2022/01/17 02:04:22;;;;;;;44.07;22.83;;;;;;;;;;779429;177;1020416;-64
2022/01/17 02:06:48;;;;;;;43.73;25.07;;;;;;;;;;777626;177;919214;-64
2022/01/17 02:09:14;;;;;;;47.77;25.60;;;;;;;;;;777364;180;919004;-63
2022/01/17 02:11:40;;;;;;;47.00;24.57;;;;;;;;;;753344;183;941342;-64
2022/01/17 02:14:06;;;;;;;43.97;24.53;;;;;;;;;;780167;178;918785;-64
2022/01/17 02:16:32;;;;;;;42.20;25.37;;;;;;;;;;785199;177;918668;-64
2022/01/17 02:18:57;;;;;;;53.17;26.77;;;;;;;;;;782338;177;918956;-63
2022/01/17 02:23:55;;;;;;;43.97;25.20;;;;;;;;;;787178;177;920593;-64
2022/01/17 02:26:21;;;;;;;47.00;24.90;;;;;;;;;;775422;180;920835;-64
2022/01/17 02:28:48;;;;;;;36.73;23.60;;;;;;;;;;751884;186;919811;-64
2022/01/17 02:31:13;;;;;;;51.17;25.33;;;;;;;;;;789186;177;917699;-65
2022/01/17 02:33:39;;;;;;;40.57;24.70;;;;;;;;;;776654;180;916077;-64
2022/01/17 02:36:05;;;;;;;49.60;26.33;;;;;;;;;;741657;184;967259;-65
2022/01/17 02:38:31;;;;;;;42.07;24.30;;;;;;;;;;780110;178;915483;-64
2022/01/17 02:40:57;;;;;;;42.10;24.87;;;;;;;;;;784374;177;919283;-65
2022/01/17 02:43:24;;;;;;;48.63;27.47;;;;;;;;;;783366;177;919787;-64
2022/01/17 02:48:32;;;;;;;53.40;24.77;;;;;;;;;;781620;177;918124;-63
2022/01/17 02:50:58;;;;;;;43.37;23.87;;;;;;;;;;777602;177;918987;-64
2022/01/17 02:53:24;;;;;;;34.30;20.30;;;;;;;;;;785373;177;919739;-64
2022/01/17 02:55:50;;;;;;;37.33;21.60;;;;;;;;;;780043;177;919481;-64
2022/01/17 02:58:16;;;;;;;41.20;21.13;;;;;;;;;;782977;178;919411;-64
2022/01/17 03:00:42;;;;;;;36.87;21.93;;;;;;;;;;790090;176;918991;-63
2022/01/17 03:03:10;;;;;;;39.13;21.27;;;;;;;;;;781191;177;919025;-64
2022/01/17 03:05:34;;;;;;;39.27;22.00;;;;;;;;;;785026;176;919111;-64
2022/01/17 03:08:00;;;;;;;37.50;20.87;;;;;;;;;;793993;176;918830;-64
2022/01/17 03:10:39;;;;;;;33.53;21.73;;;;;;;;;;776240;180;919949;-64
2022/01/17 03:12:54;;;;;;;33.10;19.90;;;;;;;;;;781070;178;919258;-64
2022/01/17 03:15:20;;;;;;;34.40;21.00;;;;;;;;;;781679;176;918580;-62
2022/01/17 03:17:46;;;;;;;30.37;20.62;;;;;;;;;;785831;177;918607;-64
2022/01/17 03:20:12;;;;;;;34.43;20.60;;;;;;;;;;779220;176;920919;-64
2022/01/17 03:22:39;;;;;;;34.67;19.73;;;;;;;;;;793922;175;920816;-64
2022/01/17 03:25:04;;;;;;;32.50;19.37;;;;;;;;;;784968;176;914887;-62
2022/01/17 03:27:30;;;;;;;33.42;18.77;;;;;;;;;;778973;176;914135;-62
2022/01/17 03:29:55;;;;;;;31.50;18.73;;;;;;;;;;777837;177;916192;-63
2022/01/17 03:32:21;;;;;;;34.40;19.00;;;;;;;;;;788560;176;919509;-63
2022/01/17 03:34:47;;;;;;;43.20;21.37;;;;;;;;;;788761;177;919535;-63
2022/01/17 03:37:13;;;;;;;31.60;17.90;;;;;;;;;;786811;176;919531;-64
2022/01/17 03:39:39;;;;;;;33.20;19.12;;;;;;;;;;782619;176;918587;-63
2022/01/17 03:42:05;;;;;;;32.47;18.50;;;;;;;;;;783513;177;918702;-63
2022/01/17 03:44:30;;;;;;;31.00;17.53;;;;;;;;;;778491;176;918712;-64
2022/01/17 03:46:56;;;;;;;34.13;19.58;;;;;;;;;;777473;177;919460;-64
2022/01/17 03:49:22;;;;;;;32.07;22.13;;;;;;;;;;775672;180;917181;-64
2022/01/17 03:51:48;;;;;;;31.47;17.83;;;;;;;;;;750388;186;917262;-64
2022/01/17 03:54:15;;;;;;;28.83;16.97;;;;;;;;;;760274;181;919242;-64
2022/01/17 03:56:40;;;;;;;29.80;17.63;;;;;;;;;;782218;177;919214;-64
2022/01/17 03:59:06;;;;;;;40.43;20.73;;;;;;;;;;784908;177;919040;-64
2022/01/17 04:01:31;;;;;;;32.07;17.57;;;;;;;;;;779434;177;919522;-63
2022/01/17 04:03:57;;;;;;;28.63;17.57;;;;;;;;;;775391;179;920060;-63
2022/01/17 04:06:24;;;;;;;37.28;17.80;;;;;;;;;;788342;177;918564;-63
2022/01/17 04:08:49;;;;;;;28.60;16.27;;;;;;;;;;784678;177;919677;-63
2022/01/17 04:11:15;;;;;;;29.67;17.67;;;;;;;;;;786793;176;919395;-64
2022/01/17 04:13:41;;;;;;;28.30;17.92;;;;;;;;;;786977;176;918555;-63
2022/01/17 04:16:06;;;;;;;32.77;17.30;;;;;;;;;;780968;176;919253;-64
2022/01/17 04:18:32;;;;;;;30.77;17.37;;;;;;;;;;794360;176;919343;-63
2022/01/17 04:21:01;;;;;;;26.57;17.27;;;;;;;;;;783385;176;918900;-63
2022/01/17 04:23:24;;;;;;;26.10;14.53;;;;;;;;;;791589;176;918571;-63
2022/01/17 04:25:50;;;;;;;29.60;15.50;;;;;;;;;;782178;176;918377;-63
2022/01/17 04:28:16;;;;;;;26.87;14.83;;;;;;;;;;781862;176;919519;-63
2022/01/17 04:30:42;;;;;;;26.80;15.23;;;;;;;;;;785040;177;918557;-63
2022/01/17 04:33:08;;;;;;;23.77;14.10;;;;;;;;;;780718;176;919573;-63
2022/01/17 04:35:33;;;;;;;26.17;14.10;;;;;;;;;;779721;176;920193;-64
2022/01/17 04:38:00;;;;;;;30.20;16.60;;;;;;;;;;775154;179;918952;-64
2022/01/17 04:40:26;;;;;;;22.77;13.77;;;;;;;;;;755855;182;918473;-62
2022/01/17 04:42:55;;;;;;;26.80;15.17;;;;;;;;;;765222;181;924681;-63
2022/01/17 04:45:19;;;;;;;26.93;15.00;;;;;;;;;;763564;180;925409;-62
2022/01/17 04:47:43;;;;;;;25.33;14.70;;;;;;;;;;764279;184;924880;-62
2022/01/17 04:50:09;;;;;;;29.00;15.87;;;;;;;;;;762446;178;917574;-61
2022/01/17 04:52:36;;;;;;;30.90;15.50;;;;;;;;;;778924;177;919526;-63
2022/01/17 04:55:02;;;;;;;26.03;15.00;;;;;;;;;;784112;176;918137;-61
2022/01/17 04:57:27;;;;;;;22.35;13.60;;;;;;;;;;781161;177;922173;-63
2022/01/17 04:59:53;;;;;;;24.20;14.40;;;;;;;;;;781439;177;919526;-61
2022/01/17 05:02:18;;;;;;;32.60;15.80;;;;;;;;;;784030;177;920333;-63
2022/01/17 05:04:45;;;;;;;25.33;15.27;;;;;;;;;;780775;177;917852;-63
2022/01/17 05:07:10;;;;;;;29.57;15.47;;;;;;;;;;783036;176;631935;-61
2022/01/17 05:09:38;;;;;;;24.73;14.80;;;;;;;;;;786990;176;917983;-63
2022/01/17 05:12:02;;;;;;;23.80;14.70;;;;;;;;;;774626;177;918589;-63
2022/01/17 05:14:28;;;;;;;30.25;16.40;;;;;;;;;;775201;176;916018;-63
2022/01/17 05:17:02;;;;;;;25.57;14.87;;;;;;;;;;781477;177;915253;-61
2022/01/17 05:21:51;;;;;;;30.37;14.90;;;;;;;;;;784982;179;635032;-62
2022/01/17 05:24:17;;;;;;;22.63;13.03;;;;;;;;;;765888;180;631147;-63
2022/01/17 05:26:43;;;;;;;24.67;11.77;;;;;;;;;;793480;176;635117;-62
2022/01/17 05:29:09;;;;;;;21.63;12.70;;;;;;;;;;774290;181;675640;-63
2022/01/17 05:31:34;;;;;;;21.58;13.50;;;;;;;;;;768493;181;632892;-63
2022/01/17 05:34:00;;;;;;;26.50;12.87;;;;;;;;;;787083;176;918968;-62
2022/01/17 05:36:26;;;;;;;21.97;13.30;;;;;;;;;;770015;180;919455;-64
2022/01/17 05:38:52;;;;;;;29.53;14.70;;;;;;;;;;786752;177;918241;-63
2022/01/17 05:41:18;;;;;;;25.08;13.73;;;;;;;;;;783872;177;919526;-64
2022/01/17 05:43:44;;;;;;;24.00;14.40;;;;;;;;;;787991;178;816103;-63
2022/01/17 05:46:09;;;;;;;24.37;13.63;;;;;;;;;;778291;177;919364;-63
2022/01/17 05:48:35;;;;;;;18.60;11.30;;;;;;;;;;781742;177;918376;-63
2022/01/17 05:51:01;;;;;;;21.67;12.93;;;;;;;;;;798718;176;635523;-63
2022/01/17 05:53:27;;;;;;;23.00;13.10;;;;;;;;;;783448;177;950510;-63
2022/01/17 05:55:53;;;;;;;21.47;12.30;;;;;;;;;;781390;176;919606;-62
2022/01/17 05:58:19;;;;;;;29.80;12.30;;;;;;;;;;773365;180;933846;-63
2022/01/17 06:00:45;;;;;;;27.90;13.43;;;;;;;;;;789131;178;919308;-64
2022/01/17 06:03:11;;;;;;;21.30;11.70;;;;;;;;;;782399;177;684265;-65
2022/01/17 06:05:37;;;;;;;26.10;12.88;;;;;;;;;;777869;177;918776;-65
2022/01/17 06:08:03;;;;;;;20.43;11.53;;;;;;;;;;776705;180;918812;-65
2022/01/17 06:10:29;;;;;;;20.30;9.97;;;;;;;;;;769547;181;918479;-65
2022/01/17 06:12:55;;;;;;;23.37;13.70;;;;;;;;;;748933;184;919399;-65
2022/01/17 06:15:20;;;;;;;24.17;13.20;;;;;;;;;;770188;181;920204;-65
2022/01/17 06:17:46;;;;;;;26.50;13.47;;;;;;;;;;756092;184;918686;-66
2022/01/17 06:20:12;;;;;;;21.00;11.60;;;;;;;;;;782807;176;918928;-65
2022/01/17 06:22:38;;;;;;;26.87;13.83;;;;;;;;;;785156;176;918646;-66
2022/01/17 06:25:04;;;;;;;25.67;15.33;;;;;;;;;;778582;177;920073;-65
2022/01/17 06:27:30;;;;;;;24.40;13.20;;;;;;;;;;781082;177;919012;-65
2022/01/17 06:29:57;;;;;;;23.98;12.80;;;;;;;;;;779680;178;917682;-65
2022/01/17 06:32:22;;;;;;;23.13;13.70;;;;;;;;;;783399;178;923384;-65
2022/01/17 06:34:47;;;;;;;20.10;12.90;;;;;;;;;;785456;178;919698;-65
2022/01/17 06:37:14;;;;;;;25.87;13.77;;;;;;;;;;777633;178;919562;-65
2022/01/17 06:39:40;;;;;;;20.73;12.03;;;;;;;;;;789754;177;918873;-64
2022/01/17 06:42:06;;;;;;;20.20;11.80;;;;;;;;;;781546;176;922024;-65
2022/01/17 06:44:32;;;;;;;23.00;12.43;;;;;;;;;;784939;176;918006;-65
2022/01/17 06:46:58;;;;;;;20.20;10.40;;;;;;;;;;784135;176;918666;-65
2022/01/17 06:49:24;;;;;;;17.60;9.60;;;;;;;;;;788226;175;1022318;-64
2022/01/17 06:51:50;;;;;;;17.90;10.90;;;;;;;;;;794081;176;926506;-65
2022/01/17 06:54:15;;;;;;;16.57;10.03;;;;;;;;;;787585;176;919271;-65
2022/01/17 06:56:44;;;;;;;16.60;8.50;;;;;;;;;;774362;180;917956;-65
2022/01/17 06:59:07;;;;;;;23.37;10.50;;;;;;;;;;785581;176;919588;-65
2022/01/17 07:01:38;;;;;;;18.17;9.77;;;;;;;;;;788536;176;920945;-64
2022/01/17 07:03:59;;;;;;;17.10;10.27;;;;;;;;;;788913;176;918965;-65
2022/01/17 07:06:25;;;;;;;11.07;5.70;;;;;;;;;;786988;176;918546;-65
2022/01/17 07:08:51;;;;;;;12.60;7.33;;;;;;;;;;786932;176;922841;-64
2022/01/17 07:11:16;;;;;;;14.50;8.67;;;;;;;;;;786432;177;920480;-65
2022/01/17 07:13:42;;;;;;;16.15;9.25;;;;;;;;;;776175;177;919872;-65
2022/01/17 07:16:08;;;;;;;19.10;10.10;;;;;;;;;;780424;177;920335;-65
2022/01/17 07:18:34;;;;;;;19.30;10.17;;;;;;;;;;785351;176;1854348;-65
2022/01/17 07:21:00;;;;;;;17.07;7.67;;;;;;;;;;783177;177;1019777;-65
2022/01/17 07:23:26;;;;;;;13.37;8.60;;;;;;;;;;787168;175;918829;-64
2022/01/17 07:25:51;;;;;;;13.23;7.23;;;;;;;;;;772781;179;920271;-65
2022/01/17 07:28:17;;;;;;;21.90;12.30;;;;;;;;;;774935;179;916697;-65
2022/01/17 07:30:43;;;;;;;18.30;10.87;;;;;;;;;;770067;180;915818;-64
2022/01/17 07:33:09;;;;;;;19.97;9.90;;;;;;;;;;778076;177;916416;-65
2022/01/17 07:35:35;;;;;;;20.67;10.37;;;;;;;;;;785864;177;919216;-64
2022/01/17 07:38:01;;;;;;;18.43;10.10;;;;;;;;;;776892;177;919877;-64
2022/01/17 07:40:27;;;;;;;16.35;9.98;;;;;;;;;;784554;177;920254;-65
2022/01/17 07:42:53;;;;;;;12.88;7.62;;;;;;;;;;781091;176;918702;-62
2022/01/17 07:45:20;;;;;;;18.30;9.50;;;;;;;;;;785068;176;918476;-64
2022/01/17 07:48:08;;;;;;;14.80;9.83;;;;;;;;;;778517;176;918542;-64
2022/01/17 07:50:12;;;;;;;15.48;10.75;;;;;;;;;;774764;177;919563;-64
2022/01/17 07:52:38;;;;;;;14.27;9.07;;;;;;;;;;782498;176;919903;-64
2022/01/17 07:55:04;;;;;;;18.00;10.70;;;;;;;;;;781454;176;944464;-64
2022/01/17 07:57:30;;;;;;;15.13;9.83;;;;;;;;;;790976;176;918893;-63
2022/01/17 07:59:56;;;;;;;17.13;10.13;;;;;;;;;;786830;176;919358;-64
2022/01/17 08:02:22;;;;;;;16.90;10.70;;;;;;;;;;781046;177;920587;-64
2022/01/17 08:04:48;;;;;;;15.10;9.63;;;;;;;;;;770087;179;918510;-64
2022/01/17 08:07:15;;;;;;;14.20;9.33;;;;;;;;;;778675;178;918885;-63
2022/01/17 08:09:40;;;;;;;17.52;8.30;;;;;;;;;;781928;178;922411;-64
2022/01/17 08:12:06;;;;;;;10.70;7.20;;;;;;;;;;785489;178;819024;-63
2022/01/17 08:14:31;;;;;;;20.83;9.67;;;;;;;;;;785168;177;918401;-63
2022/01/17 08:16:57;;;;;;;13.87;9.23;;;;;;;;;;788335;177;918384;-64
2022/01/17 08:19:24;;;;;;;14.70;8.95;;;;;;;;;;780768;178;918760;-64
2022/01/17 08:21:52;;;;;;;10.83;8.03;;;;;;;;;;782443;177;919054;-64
2022/01/17 08:24:16;;;;;;;15.60;8.60;;;;;;;;;;787352;176;919734;-64
2022/01/17 08:26:43;;;;;;;16.30;9.37;;;;;;;;;;779977;176;919408;-65
2022/01/17 08:29:08;;;;;;;16.17;7.90;;;;;;;;;;776389;177;1020412;-64
2022/01/17 08:31:33;;;;;;;8.07;5.27;;;;;;;;;;788899;175;913825;-64
2022/01/17 08:33:59;;;;;;;13.05;6.75;;;;;;;;;;776069;179;919209;-64
2022/01/17 08:36:25;;;;;;;13.77;7.60;;;;;;;;;;783668;177;915306;-64
2022/01/17 08:38:51;;;;;;;10.97;6.20;;;;;;;;;;780362;177;915612;-63
2022/01/17 08:41:19;;;;;;;8.13;5.53;;;;;;;;;;795294;176;915526;-64
2022/01/17 08:43:43;;;;;;;12.53;5.83;;;;;;;;;;771172;176;915770;-64
2022/01/17 08:46:09;;;;;;;10.93;5.60;;;;;;;;;;780047;177;916217;-64
2022/01/17 08:48:34;;;;;;;7.90;5.17;;;;;;;;;;783057;177;919848;-62
2022/01/17 08:51:00;;;;;;;7.00;5.57;;;;;;;;;;781377;177;857877;-64
2022/01/17 08:53:26;;;;;;;8.17;6.73;;;;;;;;;;778264;177;920992;-63
2022/01/17 08:55:52;;;;;;;8.87;5.67;;;;;;;;;;787679;177;918954;-65
2022/01/17 08:58:18;;;;;;;14.00;7.50;;;;;;;;;;774601;180;921113;-64
2022/01/17 09:00:44;;;;;;;10.33;6.03;;;;;;;;;;758406;182;919863;-63
2022/01/17 09:03:10;;;;;;;6.67;4.23;;;;;;;;;;785599;176;920678;-65
2022/01/17 09:05:35;;;;;;;10.50;6.10;;;;;;;;;;787000;177;917229;-64
2022/01/17 09:08:01;;;;;;;11.30;6.60;;;;;;;;;;781368;176;918920;-64
2022/01/17 09:10:27;;;;;;;8.73;3.73;;;;;;;;;;791988;176;915856;-64
2022/01/17 09:12:53;;;;;;;13.10;7.07;;;;;;;;;;787554;177;922528;-63
2022/01/17 09:15:19;;;;;;;7.10;4.23;;;;;;;;;;781884;177;916058;-64
2022/01/17 09:17:44;;;;;;;9.40;5.23;;;;;;;;;;781498;176;919782;-65
2022/01/17 09:20:11;;;;;;;17.50;4.43;;;;;;;;;;786982;176;919119;-64
2022/01/17 09:22:37;;;;;;;7.93;5.50;;;;;;;;;;783586;177;918941;-64
2022/01/17 09:25:05;;;;;;;9.70;5.55;;;;;;;;;;785280;176;918970;-64
2022/01/17 09:27:28;;;;;;;10.10;4.93;;;;;;;;;;782470;176;919733;-65
2022/01/17 09:29:54;;;;;;;8.50;4.40;;;;;;;;;;786027;177;916967;-64
2022/01/17 09:32:20;;;;;;;6.33;5.57;;;;;;;;;;785897;177;918881;-64
2022/01/17 09:34:46;;;;;;;4.97;3.30;;;;;;;;;;784945;177;918674;-64
2022/01/17 09:37:12;;;;;;;6.37;4.33;;;;;;;;;;784725;180;918482;-64
2022/01/17 09:39:38;;;;;;;6.35;4.60;;;;;;;;;;778788;178;921943;-65
2022/01/17 09:42:05;;;;;;;5.17;3.63;;;;;;;;;;782119;176;942105;-65
2022/01/17 09:44:30;;;;;;;10.00;6.47;;;;;;;;;;780213;176;918920;-65
2022/01/17 09:46:57;;;;;;;9.37;4.80;;;;;;;;;;778768;177;918684;-65
2022/01/17 09:49:30;;;;;;;7.87;4.70;;;;;;;;;;778835;177;919351;-65
2022/01/17 09:52:14;;;;;;;6.87;5.10;;;;;;;;;;776969;180;919254;-65
2022/01/17 09:54:35;;;;;;;9.50;6.80;;;;;;;;;;768564;180;919482;-63
2022/01/17 09:56:58;;;;;;;12.10;6.40;;;;;;;;;;783299;178;919072;-65
2022/01/17 09:59:24;;;;;;;11.73;6.53;;;;;;;;;;779854;177;919635;-65
2022/01/17 10:01:50;;;;;;;6.23;3.60;;;;;;;;;;777989;177;919669;-64
2022/01/17 10:04:17;;;;;;;9.50;4.50;;;;;;;;;;787974;176;919506;-66
2022/01/17 10:06:42;;;;;;;5.50;3.13;;;;;;;;;;786730;176;919583;-65
2022/01/17 10:09:12;;;;;;;8.30;5.17;;;;;;;;;;784646;176;919197;-64
2022/01/17 10:11:38;;;;;;;11.23;6.13;;;;;;;;;;779663;176;919424;-63
2022/01/17 10:14:04;;;;;;;11.77;6.70;;;;;;;;;;778798;177;919393;-65
2022/01/17 10:16:31;;;;;;;10.30;5.37;;;;;;;;;;769781;176;1035514;-66
2022/01/17 10:18:58;;;;;;;10.97;6.03;;;;;;;;;;780338;178;919832;-64
2022/01/17 10:21:28;;;;;;;13.35;8.48;;;;;;;;;;788470;176;918829;-66
2022/01/17 10:29:35;;;;;;;12.90;7.20;;;;;;;;;;780208;177;918787;-65
2022/01/17 10:36:43;;;;;;;12.80;7.70;;;;;;;;;;779129;180;919443;-65
2022/01/17 10:39:09;;;;;;;8.80;5.40;;;;;;;;;;770604;180;919298;-65
2022/01/17 10:41:35;;;;;;;9.50;7.70;;;;;;;;;;778554;177;919243;-64
2022/01/17 10:44:01;;;;;;;11.10;6.87;;;;;;;;;;785375;177;919145;-64
2022/01/17 10:46:27;;;;;;;12.10;7.53;;;;;;;;;;780710;177;922010;-65
2022/01/17 10:48:54;;;;;;;10.13;6.03;;;;;;;;;;780838;177;919191;-66
2022/01/17 10:51:20;;;;;;;10.77;5.93;;;;;;;;;;779684;177;918962;-64
2022/01/17 10:53:45;;;;;;;8.15;6.15;;;;;;;;;;784466;177;917520;-66
2022/01/17 10:56:11;;;;;;;9.33;5.00;;;;;;;;;;780772;177;917771;-65
2022/01/17 10:58:37;;;;;;;9.70;6.10;;;;;;;;;;781601;176;919744;-66
2022/01/17 11:01:02;;;;;;;10.77;6.90;;;;;;;;;;788173;176;916971;-66
2022/01/17 11:03:28;;;;;;;6.50;3.53;;;;;;;;;;781377;176;920104;-66
2022/01/17 11:05:54;;;;;;;12.35;6.97;;;;;;;;;;783231;177;916354;-65
2022/01/17 11:08:20;;;;;;;11.57;6.40;;;;;;;;;;782132;176;916372;-65
2022/01/17 11:10:46;;;;;;;5.33;4.10;;;;;;;;;;786033;176;918779;-66
2022/01/17 11:13:11;;;;;;;11.17;6.20;;;;;;;;;;776270;177;919734;-67
2022/01/17 11:15:38;;;;;;;5.65;3.83;;;;;;;;;;782655;177;917867;-65
2022/01/17 11:18:08;;;;;;;6.27;3.70;;;;;;;;;;777651;180;919806;-66
2022/01/17 11:20:31;;;;;;;6.30;3.97;;;;;;;;;;778385;178;918936;-66
2022/01/17 11:22:57;;;;;;;4.95;3.10;;;;;;;;;;781764;176;919449;-66
2022/01/17 11:25:23;;;;;;;6.10;3.40;;;;;;;;;;787931;175;919995;-66
2022/01/17 11:27:49;;;;;;;6.13;4.47;;;;;;;;;;786939;176;919188;-65
2022/01/17 11:30:16;;;;;;;4.43;2.70;;;;;;;;;;778967;176;918904;-65
2022/01/17 11:32:41;;;;;;;6.30;3.60;;;;;;;;;;788259;176;919897;-66
2022/01/17 11:35:07;;;;;;;7.50;3.37;;;;;;;;;;780605;176;920822;-65
2022/01/17 11:37:33;;;;;;;4.75;3.35;;;;;;;;;;782316;177;919792;-64
2022/01/17 11:39:58;;;;;;;8.83;4.00;;;;;;;;;;784172;177;918689;-65
2022/01/17 11:42:27;;;;;;;7.70;4.17;;;;;;;;;;777516;179;902790;-66
2022/01/17 11:44:53;;;;;;;4.47;2.67;;;;;;;;;;780439;176;920261;-65
2022/01/17 11:47:19;;;;;;;4.87;3.63;;;;;;;;;;780999;176;918927;-65
2022/01/17 11:49:45;;;;;;;7.77;3.40;;;;;;;;;;773501;180;918735;-65
2022/01/17 11:52:14;;;;;;;6.13;3.03;;;;;;;;;;770962;178;919164;-65
2022/01/17 11:54:36;;;;;;;6.10;2.83;;;;;;;;;;779476;176;918741;-65
2022/01/17 11:57:02;;;;;;;6.20;3.77;;;;;;;;;;782928;179;920155;-65
2022/01/17 11:59:32;;;;;;;5.10;3.00;;;;;;;;;;780750;177;991244;-65
2022/01/17 12:02:02;;;;;;;6.00;3.53;;;;;;;;;;780307;177;918764;-65
2022/01/17 12:04:27;;;;;;;5.30;2.70;;;;;;;;;;780669;177;918756;-65
2022/01/17 12:06:53;;;;;;;4.25;3.00;;;;;;;;;;788960;177;918492;-65
2022/01/17 12:09:20;;;;;;;3.70;3.10;;;;;;;;;;776983;177;919120;-66
2022/01/17 12:11:45;;;;;;;3.70;2.17;;;;;;;;;;780564;177;918756;-66
2022/01/17 12:14:30;;;;;;;8.10;3.00;;;;;;;;;;775568;179;919982;-66
2022/01/17 12:17:10;;;;;;;4.05;3.50;;;;;;;;;;780894;177;919607;-63
2022/01/17 12:19:36;;;;;;;4.73;2.90;;;;;;;;;;774890;179;919606;-66
2022/01/17 12:22:05;;;;;;;7.50;3.10;;;;;;;;;;788556;176;920297;-66
2022/01/17 12:24:32;;;;;;;5.30;3.17;;;;;;;;;;782196;177;920581;-64
2022/01/17 12:27:01;;;;;;;4.73;3.60;;;;;;;;;;779574;177;916483;-64
2022/01/17 12:29:44;;;;;;;5.07;3.60;;;;;;;;;;784456;177;916336;-65
2022/01/17 12:32:15;;;;;;;6.57;2.87;;;;;;;;;;772638;177;915911;-67
2022/01/17 12:34:41;;;;;;;3.93;2.13;;;;;;;;;;788299;176;920642;-65
2022/01/17 12:37:13;;;;;;;5.70;3.50;;;;;;;;;;778326;176;920434;-66
2022/01/17 12:39:39;;;;;;;6.60;3.37;;;;;;;;;;791195;176;919280;-67
2022/01/17 12:42:05;;;;;;;3.87;3.30;;;;;;;;;;793897;176;919634;-66
2022/01/17 12:44:31;;;;;;;5.57;3.93;;;;;;;;;;782665;176;919788;-66
2022/01/17 12:46:57;;;;;;;5.15;2.95;;;;;;;;;;781857;176;918721;-66
2022/01/17 12:49:23;;;;;;;4.13;2.70;;;;;;;;;;782206;177;918320;-64
2022/01/17 12:51:49;;;;;;;9.10;4.55;;;;;;;;;;782098;177;920342;-65
2022/01/17 12:54:15;;;;;;;7.83;3.90;;;;;;;;;;775880;177;921420;-66
2022/01/17 12:56:42;;;;;;;5.93;4.90;;;;;;;;;;778377;176;919115;-65
2022/01/17 12:59:09;;;;;;;6.80;3.67;;;;;;;;;;790376;177;918724;-67
2022/01/17 13:01:34;;;;;;;5.05;2.90;;;;;;;;;;781215;177;919324;-66
2022/01/17 13:04:04;;;;;;;6.47;3.50;;;;;;;;;;778421;176;918997;-67
2022/01/17 13:06:27;;;;;;;6.23;4.03;;;;;;;;;;772294;180;914819;-67
2022/01/17 13:08:55;;;;;;;4.97;3.73;;;;;;;;;;790055;177;916071;-66
2022/01/17 13:11:18;;;;;;;7.00;4.20;;;;;;;;;;786548;173;918380;-66
2022/01/17 13:13:44;;;;;;;7.77;3.60;;;;;;;;;;785200;176;1039198;-66
2022/01/17 13:16:11;;;;;;;5.63;4.00;;;;;;;;;;784973;176;919658;-67
2022/01/17 13:18:36;;;;;;;6.30;3.80;;;;;;;;;;783853;177;918364;-67
2022/01/17 13:21:02;;;;;;;4.40;2.43;;;;;;;;;;788549;176;931680;-67
2022/01/17 13:23:36;;;;;;;5.07;3.13;;;;;;;;;;787538;177;918747;-66
2022/01/17 13:25:59;;;;;;;5.13;3.40;;;;;;;;;;776619;179;920195;-66
2022/01/17 13:28:25;;;;;;;4.63;3.40;;;;;;;;;;785522;179;918581;-66
2022/01/17 13:30:51;;;;;;;5.35;3.40;;;;;;;;;;795979;175;919147;-66
2022/01/17 13:33:17;;;;;;;7.77;4.97;;;;;;;;;;788192;176;919216;-66
2022/01/17 13:35:43;;;;;;;7.20;4.33;;;;;;;;;;783916;177;919467;-64
2022/01/17 13:38:08;;;;;;;7.37;4.70;;;;;;;;;;781593;177;919233;-66
2022/01/17 13:40:34;;;;;;;7.30;4.60;;;;;;;;;;784733;176;918601;-66
2022/01/17 13:43:00;;;;;;;9.70;5.00;;;;;;;;;;779445;177;918684;-64
2022/01/17 13:45:29;;;;;;;6.30;3.70;;;;;;;;;;780068;177;918988;-65
2022/01/17 13:47:55;;;;;;;3.37;2.77;;;;;;;;;;791308;176;920131;-66
2022/01/17 13:50:21;;;;;;;6.40;3.57;;;;;;;;;;787476;174;918303;-67
2022/01/17 13:52:47;;;;;;;5.53;3.27;;;;;;;;;;779191;176;918260;-68
2022/01/17 13:55:18;;;;;;;4.67;2.33;;;;;;;;;;779945;176;919356;-66
2022/01/17 13:57:44;;;;;;;3.50;1.93;;;;;;;;;;784828;177;919655;-68
2022/01/17 14:00:10;;;;;;;1.90;1.03;;;;;;;;;;780400;176;919333;-67
2022/01/17 14:02:36;;;;;;;13.03;5.90;;;;;;;;;;779466;177;919024;-69
2022/01/17 14:05:03;;;;;;;10.75;6.68;;;;;;;;;;796864;175;919627;-67
2022/01/17 14:07:29;;;;;;;3.33;2.03;;;;;;;;;;783387;176;919040;-67
2022/01/17 14:09:55;;;;;;;2.77;1.80;;;;;;;;;;778731;177;918970;-67
2022/01/17 14:12:23;;;;;;;2.67;2.13;;;;;;;;;;777401;177;920107;-67
2022/01/17 14:14:50;;;;;;;21.53;15.27;;;;;;;;;;796768;176;614560;-67
2022/01/17 14:17:22;;;;;;;31.07;18.33;;;;;;;;;;783398;176;1028372;-67
2022/01/17 14:19:47;;;;;;;27.97;11.93;;;;;;;;;;783371;177;919397;-67
2022/01/17 14:22:13;;;;;;;17.45;11.23;;;;;;;;;;781580;177;918852;-66
2022/01/17 14:24:40;;;;;;;8.00;4.57;;;;;;;;;;786620;176;918669;-67
2022/01/17 14:27:07;;;;;;;33.30;23.77;;;;;;;;;;778724;177;919461;-65
2022/01/17 14:29:33;;;;;;;9.10;6.37;;;;;;;;;;780299;176;919135;-64